»·PEaware :: DAL1614 KSLC-KLAS

DAL1614 :: KSLC-KLAS

FLIGHT INFORMATION

Flight Status: Arrived
Operator:
Delta Air Lines
More flights by this operator :: More flights under this callsign
Pilot: John C. (18682)
Aircraft: BOEING 737-800
(B738)
More flights by this aircraft type
Origin: KSLC Salt Lake City Intl
United States
Destination: KLAS McCarran Intl
United States
More flights between these airports :: More routes between these airports
Route: ZIONZ1 EHK KSINO SITEE4
File this flight plan on PilotEdge
Remarks:
Altitude:
(Current/Filed)
32,000ft
Speed:
(Current/Filed)
440kts
Departed: 24-Oct-20 12:39 PM
Arrived: 24-Oct-20 01:37 PM
Distance/Time
Traveled:
319nm/0:58
Distance/Time
To Go:
Arrived

Flight Plot

Page will automatically refresh every two minutes.

Flight plan parsing failed; only flown route is shown


Map Options




Map Legend


Flown Route
Filed Route
Departure Airport
Arrival Airport
Navaid (VOR, NDB)
Fix

Horizontal Profiles

Position Reports

Time Latitude Longitude Heading Altitude Ground
Speed
24-Oct-20 12:10 40.788846 -111.977792 257 4238ft 0kts
24-Oct-20 12:11 40.788846 -111.977792 257 4238ft 0kts
24-Oct-20 12:12 40.788846 -111.977792 257 4238ft 0kts
24-Oct-20 12:13 40.788846 -111.977792 257 4238ft 0kts
24-Oct-20 12:14 40.788846 -111.977792 258 4238ft 0kts
24-Oct-20 12:15 40.788846 -111.977792 258 4238ft 0kts
24-Oct-20 12:16 40.788846 -111.977792 258 4238ft 0kts
24-Oct-20 12:17 40.788846 -111.977792 258 4238ft 0kts
24-Oct-20 12:18 40.788846 -111.977792 258 4237ft 0kts
24-Oct-20 12:19 40.788846 -111.977792 258 4237ft 0kts
24-Oct-20 12:20 40.788846 -111.977792 258 4237ft 0kts
24-Oct-20 12:21 40.788846 -111.977792 258 4237ft 0kts
24-Oct-20 12:22 40.788846 -111.977792 258 4237ft 0kts
24-Oct-20 12:23 40.788846 -111.977792 258 4237ft 0kts
24-Oct-20 12:24 40.788846 -111.977792 258 4237ft 0kts
24-Oct-20 12:25 40.788847 -111.977792 258 4237ft 0kts
24-Oct-20 12:26 40.788847 -111.977792 258 4237ft 0kts
24-Oct-20 12:27 40.788847 -111.977792 258 4237ft 0kts
24-Oct-20 12:28 40.788847 -111.977792 258 4237ft 0kts
24-Oct-20 12:29 40.788923 -111.977169 289 4237ft 2kts
24-Oct-20 12:30 40.788641 -111.976915 355 4237ft 0kts
24-Oct-20 12:31 40.788641 -111.976915 355 4237ft 0kts
24-Oct-20 12:32 40.788920 -111.976946 354 4237ft 7kts
24-Oct-20 12:33 40.792494 -111.977379 354 4237ft 14kts
24-Oct-20 12:34 40.797015 -111.977903 355 4237ft 17kts
24-Oct-20 12:35 40.802126 -111.978463 2 4237ft 19kts
24-Oct-20 12:36 40.806785 -111.978579 0 4237ft 10kts
24-Oct-20 12:37 40.806692 -111.976857 175 4237ft 6kts
24-Oct-20 12:38 40.783848 -111.974160 174 4288ft 181kts
24-Oct-20 12:39 40.731789 -111.962611 170 6234ft 210kts
24-Oct-20 12:40 40.665784 -111.945296 171 8351ft 254kts
24-Oct-20 12:41 40.594901 -111.931337 189 10920ft 274kts
24-Oct-20 12:42 40.508331 -111.946043 188 12427ft 336kts
24-Oct-20 12:43 40.413065 -111.950271 179 15216ft 354kts
24-Oct-20 12:44 40.312949 -111.941882 181 17746ft 369kts
24-Oct-20 12:45 40.209939 -111.947632 191 20055ft 377kts
24-Oct-20 12:46 40.104454 -111.964329 191 22134ft 391kts
24-Oct-20 12:47 39.994760 -111.980406 191 24015ft 403kts
24-Oct-20 12:48 39.881788 -111.996925 192 25698ft 415kts
24-Oct-20 12:49 39.765582 -112.013871 192 27230ft 427kts
24-Oct-20 12:50 39.646641 -112.031159 192 28619ft 438kts
24-Oct-20 12:51 39.524357 -112.048874 192 29884ft 448kts
24-Oct-20 12:52 39.399701 -112.066681 192 31297ft 452kts
24-Oct-20 12:53 39.274956 -112.084319 192 31971ft 453kts
24-Oct-20 12:54 39.152119 -112.107442 205 31975ft 437kts
24-Oct-20 12:55 39.043636 -112.173610 214 31972ft 432kts
24-Oct-20 12:56 38.939024 -112.247453 215 31972ft 426kts
24-Oct-20 12:57 38.836368 -112.321468 215 31972ft 424kts
24-Oct-20 12:58 38.733880 -112.395549 215 31978ft 423kts
24-Oct-20 12:59 38.631334 -112.469550 215 31994ft 424kts
24-Oct-20 13:00 38.528677 -112.543418 215 31999ft 424kts
24-Oct-20 13:01 38.425946 -112.617105 215 32000ft 424kts
24-Oct-20 13:02 38.323116 -112.690589 214 31999ft 425kts
24-Oct-20 13:03 38.220448 -112.763707 214 32001ft 425kts
24-Oct-20 13:04 38.117461 -112.836841 214 31963ft 424kts
24-Oct-20 13:05 38.014635 -112.909630 214 31991ft 423kts
24-Oct-20 13:06 37.911894 -112.982135 214 32042ft 422kts
24-Oct-20 13:07 37.809447 -113.054187 214 32045ft 422kts
24-Oct-20 13:08 37.711717 -113.133492 218 32045ft 419kts
24-Oct-20 13:09 37.615246 -113.215346 218 32046ft 418kts
24-Oct-20 13:10 37.519091 -113.297035 218 32044ft 418kts
24-Oct-20 13:11 37.422715 -113.378725 218 32028ft 418kts
24-Oct-20 13:12 37.326547 -113.460033 218 32005ft 417kts
24-Oct-20 13:13 37.230279 -113.541168 219 32000ft 419kts
24-Oct-20 13:14 37.133460 -113.622499 218 31999ft 419kts
24-Oct-20 13:15 37.036840 -113.703358 218 31999ft 416kts
24-Oct-20 13:16 36.943111 -113.781474 218 32002ft 402kts
24-Oct-20 13:17 36.849152 -113.859706 218 31998ft 406kts
24-Oct-20 13:18 36.756795 -113.936291 218 29516ft 402kts
24-Oct-20 13:19 36.663999 -114.013065 217 26622ft 400kts
24-Oct-20 13:20 36.577585 -114.095715 232 23829ft 385kts
24-Oct-20 13:21 36.516495 -114.202798 238 19439ft 383kts
24-Oct-20 13:22 36.459426 -114.312340 238 14902ft 372kts
24-Oct-20 13:23 36.407455 -114.413324 238 12293ft 319kts
24-Oct-20 13:24 36.363347 -114.498838 238 12010ft 291kts
24-Oct-20 13:25 36.320459 -114.582052 237 11039ft 285kts
24-Oct-20 13:26 36.262780 -114.645640 203 10006ft 269kts
24-Oct-20 13:27 36.197804 -114.673744 200 10013ft 235kts
24-Oct-20 13:28 36.135453 -114.700657 200 9287ft 237kts
24-Oct-20 13:29 36.080534 -114.740849 243 8002ft 233kts
24-Oct-20 13:30 36.073705 -114.816736 266 7161ft 215kts
24-Oct-20 13:31 36.073528 -114.889194 267 5880ft 205kts
24-Oct-20 13:33 36.073630 -114.959375 268 4742ft 205kts
24-Oct-20 13:34 36.073688 -115.026176 268 3666ft 179kts
24-Oct-20 13:35 36.073679 -115.086098 269 2726ft 170kts
24-Oct-20 13:36 36.073658 -115.141399 269 2092ft 109kts
24-Oct-20 13:37 36.075019 -115.155682 306 2142ft 17kts
24-Oct-20 13:38 36.077553 -115.158218 2 2147ft 9kts
24-Oct-20 13:39 36.078036 -115.152287 90 2123ft 22kts
24-Oct-20 13:40 36.078512 -115.147144 94 2104ft 20kts
24-Oct-20 13:41 36.078483 -115.140015 49 2080ft 15kts
24-Oct-20 13:42 36.079941 -115.139569 354 2076ft 0kts

Navigation Log

Ident Type
Flight plan parsing failed, navigation log unavailable